sensor_id;sensor_type;location;lat;lon;timestamp;P1;durP1;ratioP1;P2;durP2;ratioP2
43998;SDS011;51319;52.162;5.302;2023-02-15T00:02:22;81.05;;;40.03;;
43998;SDS011;51319;52.162;5.302;2023-02-15T00:04:50;84.90;;;42.03;;
43998;SDS011;51319;52.162;5.302;2023-02-15T00:07:18;77.72;;;38.80;;
43998;SDS011;51319;52.162;5.302;2023-02-15T00:09:45;85.38;;;42.83;;
43998;SDS011;51319;52.162;5.302;2023-02-15T00:12:13;73.22;;;36.97;;
43998;SDS011;51319;52.162;5.302;2023-02-15T00:14:40;78.32;;;38.25;;
43998;SDS011;51319;52.162;5.302;2023-02-15T00:17:08;69.85;;;37.92;;
43998;SDS011;51319;52.162;5.302;2023-02-15T00:19:35;84.07;;;39.00;;
43998;SDS011;51319;52.162;5.302;2023-02-15T00:22:02;211.93;;;70.65;;
43998;SDS011;51319;52.162;5.302;2023-02-15T00:24:29;159.40;;;55.75;;
43998;SDS011;51319;52.162;5.302;2023-02-15T00:26:56;86.28;;;38.15;;
43998;SDS011;51319;52.162;5.302;2023-02-15T00:29:23;76.43;;;35.22;;
43998;SDS011;51319;52.162;5.302;2023-02-15T00:31:50;86.40;;;42.38;;
43998;SDS011;51319;52.162;5.302;2023-02-15T00:34:19;78.68;;;38.83;;
43998;SDS011;51319;52.162;5.302;2023-02-15T00:36:47;74.65;;;33.65;;
43998;SDS011;51319;52.162;5.302;2023-02-15T00:39:15;64.68;;;33.17;;
43998;SDS011;51319;52.162;5.302;2023-02-15T00:41:43;63.58;;;32.53;;
43998;SDS011;51319;52.162;5.302;2023-02-15T00:44:11;62.42;;;32.17;;
43998;SDS011;51319;52.162;5.302;2023-02-15T00:46:38;58.60;;;29.80;;
43998;SDS011;51319;52.162;5.302;2023-02-15T00:49:05;53.58;;;30.40;;
43998;SDS011;51319;52.162;5.302;2023-02-15T00:51:32;58.13;;;30.42;;
43998;SDS011;51319;52.162;5.302;2023-02-15T00:53:59;56.13;;;28.42;;
43998;SDS011;51319;52.162;5.302;2023-02-15T00:56:26;56.05;;;29.83;;
43998;SDS011;51319;52.162;5.302;2023-02-15T00:58:54;59.45;;;31.25;;
43998;SDS011;51319;52.162;5.302;2023-02-15T01:01:21;56.10;;;29.15;;
43998;SDS011;51319;52.162;5.302;2023-02-15T01:03:49;53.85;;;27.42;;
43998;SDS011;51319;52.162;5.302;2023-02-15T01:06:17;56.33;;;29.48;;
43998;SDS011;51319;52.162;5.302;2023-02-15T01:08:44;60.20;;;29.45;;
43998;SDS011;51319;52.162;5.302;2023-02-15T01:11:13;54.17;;;29.67;;
43998;SDS011;51319;52.162;5.302;2023-02-15T01:13:41;54.65;;;29.42;;
43998;SDS011;51319;52.162;5.302;2023-02-15T01:16:08;55.83;;;28.25;;
43998;SDS011;51319;52.162;5.302;2023-02-15T01:18:35;57.33;;;29.88;;
43998;SDS011;51319;52.162;5.302;2023-02-15T01:21:12;61.58;;;30.27;;
43998;SDS011;51319;52.162;5.302;2023-02-15T01:23:40;54.38;;;30.25;;
43998;SDS011;51319;52.162;5.302;2023-02-15T01:26:08;61.20;;;30.60;;
43998;SDS011;51319;52.162;5.302;2023-02-15T01:28:35;64.45;;;30.33;;
43998;SDS011;51319;52.162;5.302;2023-02-15T01:31:09;59.45;;;30.33;;
43998;SDS011;51319;52.162;5.302;2023-02-15T01:33:41;62.28;;;31.17;;
43998;SDS011;51319;52.162;5.302;2023-02-15T01:36:09;59.97;;;29.30;;
43998;SDS011;51319;52.162;5.302;2023-02-15T01:38:36;59.10;;;29.17;;
43998;SDS011;51319;52.162;5.302;2023-02-15T01:41:03;59.47;;;29.05;;
43998;SDS011;51319;52.162;5.302;2023-02-15T01:43:55;68.63;;;31.65;;
43998;SDS011;51319;52.162;5.302;2023-02-15T01:46:27;60.42;;;29.95;;
43998;SDS011;51319;52.162;5.302;2023-02-15T01:49:13;64.40;;;31.63;;
43998;SDS011;51319;52.162;5.302;2023-02-15T01:51:43;61.45;;;30.20;;
43998;SDS011;51319;52.162;5.302;2023-02-15T01:54:16;55.05;;;28.50;;
43998;SDS011;51319;52.162;5.302;2023-02-15T01:56:44;57.42;;;29.80;;
43998;SDS011;51319;52.162;5.302;2023-02-15T01:59:15;61.85;;;29.20;;
43998;SDS011;51319;52.162;5.302;2023-02-15T02:01:47;65.68;;;30.38;;
43998;SDS011;51319;52.162;5.302;2023-02-15T02:04:28;62.67;;;29.38;;
43998;SDS011;51319;52.162;5.302;2023-02-15T02:06:59;65.93;;;29.88;;
43998;SDS011;51319;52.162;5.302;2023-02-15T02:09:29;62.17;;;31.35;;
43998;SDS011;51319;52.162;5.302;2023-02-15T02:11:56;57.92;;;30.33;;
43998;SDS011;51319;52.162;5.302;2023-02-15T02:14:23;55.58;;;29.92;;
43998;SDS011;51319;52.162;5.302;2023-02-15T02:16:52;59.15;;;29.73;;
43998;SDS011;51319;52.162;5.302;2023-02-15T02:27:49;58.53;;;27.85;;
43998;SDS011;51319;52.162;5.302;2023-02-15T02:30:32;60.05;;;26.83;;
43998;SDS011;51319;52.162;5.302;2023-02-15T02:41:17;58.03;;;28.73;;
43998;SDS011;51319;52.162;5.302;2023-02-15T02:46:54;51.78;;;27.70;;
43998;SDS011;51319;52.162;5.302;2023-02-15T02:49:37;55.70;;;27.17;;
43998;SDS011;51319;52.162;5.302;2023-02-15T02:52:32;54.53;;;27.85;;
43998;SDS011;51319;52.162;5.302;2023-02-15T02:55:03;56.90;;;28.33;;
43998;SDS011;51319;52.162;5.302;2023-02-15T03:00:37;62.35;;;28.42;;
43998;SDS011;51319;52.162;5.302;2023-02-15T03:03:13;53.42;;;27.73;;
43998;SDS011;51319;52.162;5.302;2023-02-15T03:05:46;53.70;;;27.75;;
43998;SDS011;51319;52.162;5.302;2023-02-15T03:08:19;55.53;;;28.15;;
43998;SDS011;51319;52.162;5.302;2023-02-15T03:10:50;54.00;;;26.90;;
43998;SDS011;51319;52.162;5.302;2023-02-15T03:13:19;59.42;;;28.98;;
43998;SDS011;51319;52.162;5.302;2023-02-15T03:15:46;52.78;;;27.88;;
43998;SDS011;51319;52.162;5.302;2023-02-15T03:18:36;57.35;;;29.05;;
43998;SDS011;51319;52.162;5.302;2023-02-15T03:21:07;61.00;;;27.85;;
43998;SDS011;51319;52.162;5.302;2023-02-15T03:23:35;57.88;;;28.95;;
43998;SDS011;51319;52.162;5.302;2023-02-15T03:26:04;63.92;;;29.90;;
43998;SDS011;51319;52.162;5.302;2023-02-15T03:28:53;57.20;;;29.48;;
43998;SDS011;51319;52.162;5.302;2023-02-15T03:31:23;56.05;;;28.25;;
43998;SDS011;51319;52.162;5.302;2023-02-15T03:33:59;51.97;;;27.05;;
43998;SDS011;51319;52.162;5.302;2023-02-15T03:36:32;59.25;;;28.13;;
43998;SDS011;51319;52.162;5.302;2023-02-15T03:39:30;55.75;;;27.65;;
43998;SDS011;51319;52.162;5.302;2023-02-15T03:42:09;55.58;;;28.85;;
43998;SDS011;51319;52.162;5.302;2023-02-15T03:47:44;53.95;;;27.88;;
43998;SDS011;51319;52.162;5.302;2023-02-15T03:52:59;54.20;;;27.67;;
43998;SDS011;51319;52.162;5.302;2023-02-15T03:55:29;61.22;;;28.30;;
43998;SDS011;51319;52.162;5.302;2023-02-15T03:57:56;58.45;;;27.83;;
43998;SDS011;51319;52.162;5.302;2023-02-15T04:00:44;61.63;;;28.00;;
43998;SDS011;51319;52.162;5.302;2023-02-15T04:03:53;57.67;;;28.63;;
43998;SDS011;51319;52.162;5.302;2023-02-15T04:06:24;57.72;;;28.63;;
43998;SDS011;51319;52.162;5.302;2023-02-15T04:08:51;59.15;;;27.83;;
43998;SDS011;51319;52.162;5.302;2023-02-15T04:11:36;57.60;;;28.98;;
43998;SDS011;51319;52.162;5.302;2023-02-15T04:14:03;62.40;;;29.25;;
43998;SDS011;51319;52.162;5.302;2023-02-15T04:16:50;55.80;;;28.02;;
43998;SDS011;51319;52.162;5.302;2023-02-15T04:19:17;62.13;;;29.20;;
43998;SDS011;51319;52.162;5.302;2023-02-15T04:22:02;57.80;;;28.27;;
43998;SDS011;51319;52.162;5.302;2023-02-15T04:24:48;61.00;;;29.05;;
43998;SDS011;51319;52.162;5.302;2023-02-15T04:27:33;58.78;;;29.63;;
43998;SDS011;51319;52.162;5.302;2023-02-15T04:30:00;60.05;;;29.02;;
43998;SDS011;51319;52.162;5.302;2023-02-15T04:32:27;57.47;;;30.10;;
43998;SDS011;51319;52.162;5.302;2023-02-15T04:34:54;61.80;;;28.90;;
43998;SDS011;51319;52.162;5.302;2023-02-15T04:37:20;67.53;;;30.02;;
43998;SDS011;51319;52.162;5.302;2023-02-15T04:39:47;59.70;;;28.75;;
43998;SDS011;51319;52.162;5.302;2023-02-15T04:42:15;62.58;;;29.33;;
43998;SDS011;51319;52.162;5.302;2023-02-15T04:44:42;68.72;;;30.00;;
43998;SDS011;51319;52.162;5.302;2023-02-15T04:47:09;63.25;;;28.77;;
43998;SDS011;51319;52.162;5.302;2023-02-15T04:49:36;61.28;;;29.65;;
43998;SDS011;51319;52.162;5.302;2023-02-15T04:52:03;66.90;;;28.98;;
43998;SDS011;51319;52.162;5.302;2023-02-15T04:54:30;64.78;;;28.65;;
43998;SDS011;51319;52.162;5.302;2023-02-15T04:56:57;63.85;;;30.42;;
43998;SDS011;51319;52.162;5.302;2023-02-15T04:59:23;66.82;;;29.85;;
43998;SDS011;51319;52.162;5.302;2023-02-15T05:01:50;63.17;;;29.70;;
43998;SDS011;51319;52.162;5.302;2023-02-15T05:04:17;68.03;;;29.27;;
43998;SDS011;51319;52.162;5.302;2023-02-15T05:06:44;60.47;;;29.80;;
43998;SDS011;51319;52.162;5.302;2023-02-15T05:09:11;63.20;;;30.30;;
43998;SDS011;51319;52.162;5.302;2023-02-15T05:11:38;63.10;;;29.23;;
43998;SDS011;51319;52.162;5.302;2023-02-15T05:14:05;69.15;;;31.02;;
43998;SDS011;51319;52.162;5.302;2023-02-15T05:16:32;71.97;;;30.95;;
43998;SDS011;51319;52.162;5.302;2023-02-15T05:18:59;65.60;;;29.08;;
43998;SDS011;51319;52.162;5.302;2023-02-15T05:21:26;66.15;;;29.80;;
43998;SDS011;51319;52.162;5.302;2023-02-15T05:23:53;66.70;;;31.38;;
43998;SDS011;51319;52.162;5.302;2023-02-15T05:26:21;63.85;;;30.08;;
43998;SDS011;51319;52.162;5.302;2023-02-15T05:29:08;64.95;;;30.15;;
43998;SDS011;51319;52.162;5.302;2023-02-15T05:31:35;64.82;;;30.17;;
43998;SDS011;51319;52.162;5.302;2023-02-15T05:34:03;64.88;;;31.73;;
43998;SDS011;51319;52.162;5.302;2023-02-15T05:36:30;67.13;;;30.17;;
43998;SDS011;51319;52.162;5.302;2023-02-15T05:38:56;68.68;;;32.90;;
43998;SDS011;51319;52.162;5.302;2023-02-15T05:41:23;66.45;;;32.97;;
43998;SDS011;51319;52.162;5.302;2023-02-15T05:43:51;72.20;;;31.75;;
43998;SDS011;51319;52.162;5.302;2023-02-15T05:46:20;70.97;;;31.80;;
43998;SDS011;51319;52.162;5.302;2023-02-15T05:48:47;67.60;;;31.88;;
43998;SDS011;51319;52.162;5.302;2023-02-15T05:51:14;72.22;;;31.67;;
43998;SDS011;51319;52.162;5.302;2023-02-15T05:53:43;62.70;;;30.67;;
43998;SDS011;51319;52.162;5.302;2023-02-15T05:56:10;75.85;;;32.00;;
43998;SDS011;51319;52.162;5.302;2023-02-15T05:58:39;67.30;;;30.13;;
43998;SDS011;51319;52.162;5.302;2023-02-15T06:01:15;67.47;;;30.80;;
43998;SDS011;51319;52.162;5.302;2023-02-15T06:03:44;71.00;;;30.50;;
43998;SDS011;51319;52.162;5.302;2023-02-15T06:06:11;76.55;;;34.42;;
43998;SDS011;51319;52.162;5.302;2023-02-15T06:08:38;87.55;;;35.75;;
43998;SDS011;51319;52.162;5.302;2023-02-15T06:11:06;77.00;;;32.55;;
43998;SDS011;51319;52.162;5.302;2023-02-15T06:13:33;63.30;;;30.65;;
43998;SDS011;51319;52.162;5.302;2023-02-15T06:16:04;68.85;;;31.15;;
43998;SDS011;51319;52.162;5.302;2023-02-15T06:18:32;72.57;;;33.40;;
43998;SDS011;51319;52.162;5.302;2023-02-15T06:20:59;71.15;;;30.92;;
43998;SDS011;51319;52.162;5.302;2023-02-15T06:23:25;63.55;;;31.48;;
43998;SDS011;51319;52.162;5.302;2023-02-15T06:25:52;70.88;;;32.13;;
43998;SDS011;51319;52.162;5.302;2023-02-15T06:28:19;65.32;;;31.42;;
43998;SDS011;51319;52.162;5.302;2023-02-15T06:30:46;60.50;;;29.33;;
43998;SDS011;51319;52.162;5.302;2023-02-15T06:33:13;70.20;;;31.48;;
43998;SDS011;51319;52.162;5.302;2023-02-15T06:35:40;72.93;;;31.58;;
43998;SDS011;51319;52.162;5.302;2023-02-15T06:38:07;65.55;;;30.85;;
43998;SDS011;51319;52.162;5.302;2023-02-15T06:40:34;68.95;;;32.15;;
43998;SDS011;51319;52.162;5.302;2023-02-15T06:43:00;73.82;;;31.27;;
43998;SDS011;51319;52.162;5.302;2023-02-15T06:45:27;68.82;;;31.65;;
43998;SDS011;51319;52.162;5.302;2023-02-15T06:47:54;67.18;;;30.75;;
43998;SDS011;51319;52.162;5.302;2023-02-15T06:50:21;74.57;;;31.63;;
43998;SDS011;51319;52.162;5.302;2023-02-15T06:52:48;76.68;;;33.28;;
43998;SDS011;51319;52.162;5.302;2023-02-15T06:55:14;74.20;;;34.72;;
43998;SDS011;51319;52.162;5.302;2023-02-15T06:57:41;76.95;;;34.50;;
43998;SDS011;51319;52.162;5.302;2023-02-15T07:00:08;78.53;;;34.00;;
43998;SDS011;51319;52.162;5.302;2023-02-15T07:02:36;86.78;;;36.17;;
43998;SDS011;51319;52.162;5.302;2023-02-15T07:05:03;74.07;;;34.83;;
43998;SDS011;51319;52.162;5.302;2023-02-15T07:07:31;78.20;;;35.78;;
43998;SDS011;51319;52.162;5.302;2023-02-15T07:09:58;82.55;;;37.22;;
43998;SDS011;51319;52.162;5.302;2023-02-15T07:12:25;86.18;;;34.58;;
43998;SDS011;51319;52.162;5.302;2023-02-15T07:15:11;81.85;;;34.97;;
43998;SDS011;51319;52.162;5.302;2023-02-15T07:17:42;76.82;;;35.03;;
43998;SDS011;51319;52.162;5.302;2023-02-15T07:20:11;76.03;;;34.45;;
43998;SDS011;51319;52.162;5.302;2023-02-15T07:22:43;83.68;;;36.25;;
43998;SDS011;51319;52.162;5.302;2023-02-15T07:25:10;81.53;;;33.35;;
43998;SDS011;51319;52.162;5.302;2023-02-15T07:27:38;81.68;;;32.63;;
43998;SDS011;51319;52.162;5.302;2023-02-15T07:30:06;83.25;;;35.30;;
43998;SDS011;51319;52.162;5.302;2023-02-15T07:32:35;70.47;;;33.65;;
43998;SDS011;51319;52.162;5.302;2023-02-15T07:35:02;78.45;;;34.63;;
43998;SDS011;51319;52.162;5.302;2023-02-15T07:37:29;79.35;;;34.97;;
43998;SDS011;51319;52.162;5.302;2023-02-15T07:39:56;75.20;;;33.97;;
43998;SDS011;51319;52.162;5.302;2023-02-15T07:42:23;72.95;;;34.25;;
43998;SDS011;51319;52.162;5.302;2023-02-15T07:44:50;75.07;;;33.53;;
43998;SDS011;51319;52.162;5.302;2023-02-15T07:47:18;75.43;;;33.20;;
43998;SDS011;51319;52.162;5.302;2023-02-15T07:49:45;61.22;;;32.45;;
43998;SDS011;51319;52.162;5.302;2023-02-15T07:52:12;73.13;;;33.38;;
43998;SDS011;51319;52.162;5.302;2023-02-15T07:54:39;74.53;;;34.25;;
43998;SDS011;51319;52.162;5.302;2023-02-15T07:57:06;65.13;;;32.28;;
43998;SDS011;51319;52.162;5.302;2023-02-15T07:59:32;65.00;;;31.70;;
43998;SDS011;51319;52.162;5.302;2023-02-15T08:01:59;69.30;;;31.13;;
43998;SDS011;51319;52.162;5.302;2023-02-15T08:04:26;68.40;;;30.23;;
43998;SDS011;51319;52.162;5.302;2023-02-15T08:06:53;66.40;;;33.08;;
43998;SDS011;51319;52.162;5.302;2023-02-15T08:09:21;63.65;;;31.85;;
43998;SDS011;51319;52.162;5.302;2023-02-15T08:11:48;73.20;;;32.78;;
43998;SDS011;51319;52.162;5.302;2023-02-15T08:14:16;60.90;;;32.35;;
43998;SDS011;51319;52.162;5.302;2023-02-15T08:16:51;61.67;;;31.50;;
43998;SDS011;51319;52.162;5.302;2023-02-15T08:19:20;57.63;;;31.35;;
43998;SDS011;51319;52.162;5.302;2023-02-15T08:21:49;55.08;;;30.92;;
43998;SDS011;51319;52.162;5.302;2023-02-15T08:24:19;43.53;;;25.35;;
43998;SDS011;51319;52.162;5.302;2023-02-15T08:26:48;52.92;;;29.52;;
43998;SDS011;51319;52.162;5.302;2023-02-15T08:29:16;53.78;;;28.50;;
43998;SDS011;51319;52.162;5.302;2023-02-15T08:32:01;52.13;;;27.95;;
43998;SDS011;51319;52.162;5.302;2023-02-15T08:34:32;63.47;;;33.67;;
43998;SDS011;51319;52.162;5.302;2023-02-15T08:39:28;58.30;;;31.15;;
43998;SDS011;51319;52.162;5.302;2023-02-15T08:41:55;62.70;;;31.35;;
43998;SDS011;51319;52.162;5.302;2023-02-15T08:44:22;56.85;;;31.33;;
43998;SDS011;51319;52.162;5.302;2023-02-15T08:46:49;51.20;;;29.27;;
43998;SDS011;51319;52.162;5.302;2023-02-15T08:49:18;51.70;;;28.88;;
43998;SDS011;51319;52.162;5.302;2023-02-15T08:51:46;47.45;;;29.00;;
43998;SDS011;51319;52.162;5.302;2023-02-15T08:54:15;60.25;;;29.48;;
43998;SDS011;51319;52.162;5.302;2023-02-15T08:56:44;49.30;;;29.75;;
43998;SDS011;51319;52.162;5.302;2023-02-15T08:59:29;58.47;;;30.13;;
43998;SDS011;51319;52.162;5.302;2023-02-15T09:01:56;89.65;;;33.50;;
43998;SDS011;51319;52.162;5.302;2023-02-15T09:04:23;64.13;;;29.88;;
43998;SDS011;51319;52.162;5.302;2023-02-15T09:06:50;50.63;;;27.98;;
43998;SDS011;51319;52.162;5.302;2023-02-15T09:09:17;51.05;;;29.52;;
43998;SDS011;51319;52.162;5.302;2023-02-15T09:11:45;50.17;;;29.58;;
43998;SDS011;51319;52.162;5.302;2023-02-15T09:14:15;48.30;;;28.80;;
43998;SDS011;51319;52.162;5.302;2023-02-15T09:16:44;51.05;;;28.85;;
43998;SDS011;51319;52.162;5.302;2023-02-15T09:19:15;44.92;;;28.83;;
43998;SDS011;51319;52.162;5.302;2023-02-15T09:21:43;47.33;;;28.10;;
43998;SDS011;51319;52.162;5.302;2023-02-15T09:24:11;43.42;;;29.23;;
43998;SDS011;51319;52.162;5.302;2023-02-15T09:26:40;50.40;;;30.42;;
43998;SDS011;51319;52.162;5.302;2023-02-15T09:29:09;49.65;;;29.55;;
43998;SDS011;51319;52.162;5.302;2023-02-15T09:31:45;47.88;;;30.77;;
43998;SDS011;51319;52.162;5.302;2023-02-15T09:34:16;47.90;;;30.05;;
43998;SDS011;51319;52.162;5.302;2023-02-15T09:36:45;56.33;;;32.10;;
43998;SDS011;51319;52.162;5.302;2023-02-15T09:39:20;54.05;;;30.70;;
43998;SDS011;51319;52.162;5.302;2023-02-15T09:50:21;49.60;;;29.27;;
43998;SDS011;51319;52.162;5.302;2023-02-15T10:01:50;52.70;;;29.30;;
43998;SDS011;51319;52.162;5.302;2023-02-15T10:04:38;54.00;;;29.23;;
43998;SDS011;51319;52.162;5.302;2023-02-15T10:07:21;47.78;;;29.45;;
43998;SDS011;51319;52.162;5.302;2023-02-15T10:15:47;44.17;;;26.92;;
43998;SDS011;51319;52.162;5.302;2023-02-15T10:21:03;44.72;;;28.05;;
43998;SDS011;51319;52.162;5.302;2023-02-15T10:26:22;43.00;;;25.90;;
43998;SDS011;51319;52.162;5.302;2023-02-15T10:29:26;41.42;;;28.40;;
43998;SDS011;51319;52.162;5.302;2023-02-15T10:34:39;38.92;;;25.70;;
43998;SDS011;51319;52.162;5.302;2023-02-15T10:45:32;53.33;;;26.08;;
43998;SDS011;51319;52.162;5.302;2023-02-15T10:50:51;38.78;;;26.55;;
43998;SDS011;51319;52.162;5.302;2023-02-15T11:04:39;38.30;;;25.98;;
43998;SDS011;51319;52.162;5.302;2023-02-15T11:07:38;42.67;;;26.88;;
43998;SDS011;51319;52.162;5.302;2023-02-15T11:12:50;38.72;;;26.20;;
43998;SDS011;51319;52.162;5.302;2023-02-15T11:15:26;35.97;;;24.75;;
43998;SDS011;51319;52.162;5.302;2023-02-15T11:20:53;37.10;;;26.00;;
43998;SDS011;51319;52.162;5.302;2023-02-15T11:23:40;38.88;;;25.92;;
43998;SDS011;51319;52.162;5.302;2023-02-15T11:26:19;42.30;;;26.73;;
43998;SDS011;51319;52.162;5.302;2023-02-15T11:29:12;43.15;;;27.35;;
43998;SDS011;51319;52.162;5.302;2023-02-15T11:32:01;43.92;;;28.00;;
43998;SDS011;51319;52.162;5.302;2023-02-15T11:34:59;41.00;;;27.63;;
43998;SDS011;51319;52.162;5.302;2023-02-15T11:37:43;46.55;;;26.80;;
43998;SDS011;51319;52.162;5.302;2023-02-15T11:42:56;40.13;;;26.38;;
43998;SDS011;51319;52.162;5.302;2023-02-15T11:45:30;44.65;;;29.48;;
43998;SDS011;51319;52.162;5.302;2023-02-15T11:47:58;44.42;;;27.38;;
43998;SDS011;51319;52.162;5.302;2023-02-15T11:50:28;45.22;;;27.85;;
43998;SDS011;51319;52.162;5.302;2023-02-15T11:53:04;45.35;;;29.90;;
43998;SDS011;51319;52.162;5.302;2023-02-15T11:55:35;43.10;;;29.38;;
43998;SDS011;51319;52.162;5.302;2023-02-15T12:01:00;41.13;;;29.05;;
43998;SDS011;51319;52.162;5.302;2023-02-15T12:03:47;40.53;;;26.77;;
43998;SDS011;51319;52.162;5.302;2023-02-15T12:06:33;41.50;;;27.73;;
43998;SDS011;51319;52.162;5.302;2023-02-15T12:11:52;43.03;;;27.48;;
43998;SDS011;51319;52.162;5.302;2023-02-15T12:14:19;45.67;;;27.95;;
43998;SDS011;51319;52.162;5.302;2023-02-15T12:16:48;44.67;;;28.50;;
43998;SDS011;51319;52.162;5.302;2023-02-15T12:21:53;43.65;;;27.60;;
43998;SDS011;51319;52.162;5.302;2023-02-15T12:24:30;42.90;;;28.10;;
43998;SDS011;51319;52.162;5.302;2023-02-15T12:27:18;46.22;;;28.92;;
43998;SDS011;51319;52.162;5.302;2023-02-15T12:30:00;39.03;;;27.40;;
43998;SDS011;51319;52.162;5.302;2023-02-15T12:32:34;41.92;;;28.65;;
43998;SDS011;51319;52.162;5.302;2023-02-15T12:35:13;42.58;;;28.08;;
43998;SDS011;51319;52.162;5.302;2023-02-15T12:37:54;44.90;;;29.00;;
43998;SDS011;51319;52.162;5.302;2023-02-15T12:40:24;41.05;;;28.13;;
43998;SDS011;51319;52.162;5.302;2023-02-15T12:42:56;37.92;;;27.40;;
43998;SDS011;51319;52.162;5.302;2023-02-15T12:45:28;45.13;;;27.85;;
43998;SDS011;51319;52.162;5.302;2023-02-15T12:50:39;42.25;;;27.20;;
43998;SDS011;51319;52.162;5.302;2023-02-15T12:53:12;41.42;;;27.60;;
43998;SDS011;51319;52.162;5.302;2023-02-15T12:55:53;38.88;;;27.83;;
43998;SDS011;51319;52.162;5.302;2023-02-15T12:58:26;45.53;;;27.55;;
43998;SDS011;51319;52.162;5.302;2023-02-15T13:03:54;40.33;;;27.70;;
43998;SDS011;51319;52.162;5.302;2023-02-15T13:06:33;50.80;;;29.20;;
43998;SDS011;51319;52.162;5.302;2023-02-15T13:09:24;47.60;;;28.38;;
43998;SDS011;51319;52.162;5.302;2023-02-15T13:14:46;48.38;;;27.77;;
43998;SDS011;51319;52.162;5.302;2023-02-15T13:17:18;45.47;;;27.45;;
43998;SDS011;51319;52.162;5.302;2023-02-15T13:19:56;45.22;;;27.77;;
43998;SDS011;51319;52.162;5.302;2023-02-15T13:25:04;47.88;;;29.63;;
43998;SDS011;51319;52.162;5.302;2023-02-15T13:27:39;48.60;;;28.63;;
43998;SDS011;51319;52.162;5.302;2023-02-15T13:30:49;46.83;;;28.73;;
43998;SDS011;51319;52.162;5.302;2023-02-15T13:33:02;45.08;;;28.15;;
43998;SDS011;51319;52.162;5.302;2023-02-15T13:41:16;49.90;;;29.48;;
43998;SDS011;51319;52.162;5.302;2023-02-15T13:49:33;43.35;;;29.65;;
43998;SDS011;51319;52.162;5.302;2023-02-15T13:52:15;46.05;;;29.00;;
43998;SDS011;51319;52.162;5.302;2023-02-15T13:58:05;48.08;;;29.60;;
43998;SDS011;51319;52.162;5.302;2023-02-15T14:00:46;45.92;;;30.92;;
43998;SDS011;51319;52.162;5.302;2023-02-15T14:11:49;51.42;;;32.75;;
43998;SDS011;51319;52.162;5.302;2023-02-15T14:14:35;54.45;;;33.42;;
43998;SDS011;51319;52.162;5.302;2023-02-15T14:19:54;52.63;;;32.35;;
43998;SDS011;51319;52.162;5.302;2023-02-15T14:23:06;52.80;;;32.05;;
43998;SDS011;51319;52.162;5.302;2023-02-15T14:28:26;53.25;;;32.10;;
43998;SDS011;51319;52.162;5.302;2023-02-15T14:31:37;56.45;;;32.72;;
43998;SDS011;51319;52.162;5.302;2023-02-15T14:34:16;59.28;;;35.78;;
43998;SDS011;51319;52.162;5.302;2023-02-15T14:36:48;50.72;;;32.42;;
43998;SDS011;51319;52.162;5.302;2023-02-15T14:39:23;72.03;;;37.50;;
43998;SDS011;51319;52.162;5.302;2023-02-15T14:42:23;94.85;;;51.50;;
43998;SDS011;51319;52.162;5.302;2023-02-15T14:45:15;55.85;;;34.25;;
43998;SDS011;51319;52.162;5.302;2023-02-15T14:50:46;54.25;;;32.58;;
43998;SDS011;51319;52.162;5.302;2023-02-15T15:01:27;63.70;;;33.35;;
43998;SDS011;51319;52.162;5.302;2023-02-15T15:06:29;51.40;;;33.58;;
43998;SDS011;51319;52.162;5.302;2023-02-15T15:09:20;58.17;;;33.97;;
43998;SDS011;51319;52.162;5.302;2023-02-15T15:11:51;55.30;;;33.65;;
43998;SDS011;51319;52.162;5.302;2023-02-15T15:17:00;56.15;;;31.77;;
43998;SDS011;51319;52.162;5.302;2023-02-15T15:22:19;53.13;;;31.75;;
43998;SDS011;51319;52.162;5.302;2023-02-15T15:24:51;57.92;;;34.15;;
43998;SDS011;51319;52.162;5.302;2023-02-15T15:41:18;55.83;;;34.60;;
43998;SDS011;51319;52.162;5.302;2023-02-15T15:49:49;57.55;;;33.80;;
43998;SDS011;51319;52.162;5.302;2023-02-15T15:52:20;63.10;;;35.45;;
43998;SDS011;51319;52.162;5.302;2023-02-15T15:54:50;64.47;;;34.92;;
43998;SDS011;51319;52.162;5.302;2023-02-15T16:00:00;64.85;;;34.55;;
43998;SDS011;51319;52.162;5.302;2023-02-15T16:02:28;56.42;;;33.65;;
43998;SDS011;51319;52.162;5.302;2023-02-15T16:05:05;56.55;;;34.67;;
43998;SDS011;51319;52.162;5.302;2023-02-15T16:07:33;63.25;;;34.28;;
43998;SDS011;51319;52.162;5.302;2023-02-15T16:10:01;60.53;;;36.67;;
43998;SDS011;51319;52.162;5.302;2023-02-15T16:12:32;59.90;;;35.55;;
43998;SDS011;51319;52.162;5.302;2023-02-15T16:15:04;56.17;;;33.72;;
43998;SDS011;51319;52.162;5.302;2023-02-15T16:17:42;63.60;;;33.90;;
43998;SDS011;51319;52.162;5.302;2023-02-15T16:22:54;64.30;;;35.10;;
43998;SDS011;51319;52.162;5.302;2023-02-15T16:25:50;62.10;;;35.80;;
43998;SDS011;51319;52.162;5.302;2023-02-15T16:28:35;61.08;;;33.38;;
43998;SDS011;51319;52.162;5.302;2023-02-15T16:31:07;61.55;;;35.33;;
43998;SDS011;51319;52.162;5.302;2023-02-15T16:33:39;66.43;;;36.85;;
43998;SDS011;51319;52.162;5.302;2023-02-15T16:36:20;57.95;;;34.08;;
43998;SDS011;51319;52.162;5.302;2023-02-15T16:41:16;66.55;;;34.25;;
43998;SDS011;51319;52.162;5.302;2023-02-15T16:43:47;61.28;;;34.88;;
43998;SDS011;51319;52.162;5.302;2023-02-15T16:46:18;63.72;;;37.17;;
43998;SDS011;51319;52.162;5.302;2023-02-15T16:48:48;56.95;;;34.72;;
43998;SDS011;51319;52.162;5.302;2023-02-15T16:51:21;68.05;;;35.75;;
43998;SDS011;51319;52.162;5.302;2023-02-15T16:53:54;62.20;;;34.85;;
43998;SDS011;51319;52.162;5.302;2023-02-15T16:56:23;61.75;;;34.40;;
43998;SDS011;51319;52.162;5.302;2023-02-15T16:58:52;63.08;;;34.53;;
43998;SDS011;51319;52.162;5.302;2023-02-15T17:01:22;62.85;;;34.97;;
43998;SDS011;51319;52.162;5.302;2023-02-15T17:04:10;58.80;;;35.55;;
43998;SDS011;51319;52.162;5.302;2023-02-15T17:07:06;58.63;;;35.53;;
43998;SDS011;51319;52.162;5.302;2023-02-15T17:09:48;57.67;;;35.25;;
43998;SDS011;51319;52.162;5.302;2023-02-15T17:15:25;64.38;;;36.78;;
43998;SDS011;51319;52.162;5.302;2023-02-15T17:17:56;62.22;;;36.42;;
43998;SDS011;51319;52.162;5.302;2023-02-15T17:20:28;67.30;;;37.95;;
43998;SDS011;51319;52.162;5.302;2023-02-15T17:22:59;66.72;;;37.78;;
43998;SDS011;51319;52.162;5.302;2023-02-15T17:25:31;61.75;;;37.58;;
43998;SDS011;51319;52.162;5.302;2023-02-15T17:28:03;66.95;;;38.08;;
43998;SDS011;51319;52.162;5.302;2023-02-15T17:30:31;66.97;;;38.75;;
43998;SDS011;51319;52.162;5.302;2023-02-15T17:33:01;62.95;;;37.33;;
43998;SDS011;51319;52.162;5.302;2023-02-15T17:35:30;66.53;;;38.45;;
43998;SDS011;51319;52.162;5.302;2023-02-15T17:38:05;64.45;;;37.30;;
43998;SDS011;51319;52.162;5.302;2023-02-15T17:40:43;68.53;;;38.50;;
43998;SDS011;51319;52.162;5.302;2023-02-15T17:43:10;64.13;;;37.90;;
43998;SDS011;51319;52.162;5.302;2023-02-15T17:45:42;68.70;;;38.58;;
43998;SDS011;51319;52.162;5.302;2023-02-15T17:50:48;69.00;;;38.75;;
43998;SDS011;51319;52.162;5.302;2023-02-15T17:53:16;71.70;;;39.33;;
43998;SDS011;51319;52.162;5.302;2023-02-15T17:55:44;70.78;;;37.90;;
43998;SDS011;51319;52.162;5.302;2023-02-15T17:58:12;72.57;;;36.60;;
43998;SDS011;51319;52.162;5.302;2023-02-15T18:00:42;63.08;;;37.05;;
43998;SDS011;51319;52.162;5.302;2023-02-15T18:03:54;63.75;;;39.15;;
43998;SDS011;51319;52.162;5.302;2023-02-15T18:06:40;69.03;;;38.60;;